Time;durP1;ratioP1;P1;durP2;ratioP2;P2;SDS_P1;SDS_P2;PMS_P1;PMS_P2;Temp;Humidity;BMP_temperature;BMP_pressure;BME280_temperature;BME280_humidity;BME280_pressure;Samples;Min_cycle;Max_cycle;Signal;HPM_P1;HPM_P2
2023/01/31 00:01:12;;;;;;;10.80;5.40;;;;;;;7.01;56.53;98353.38;5049636;28;20766;-70
2023/01/31 00:03:39;;;;;;;7.00;4.50;;;;;;;7.08;56.51;98354.63;5052795;28;20241;-69
2023/01/31 00:06:09;;;;;;;9.73;4.90;;;;;;;6.96;56.24;98355.44;5053215;28;20417;-70
2023/01/31 00:08:35;;;;;;;9.63;4.40;;;;;;;6.94;56.08;98352.09;5062677;28;20436;-69
2023/01/31 00:11:00;;;;;;;12.97;5.23;;;;;;;6.88;56.29;98348.13;5065603;28;20480;-70
2023/01/31 00:13:28;;;;;;;11.13;5.00;;;;;;;6.98;55.92;98337.94;5078717;28;20205;-69
2023/01/31 00:15:56;;;;;;;18.03;5.20;;;;;;;6.99;55.92;98342.22;5071259;28;20202;-70
2023/01/31 00:18:22;;;;;;;8.30;4.77;;;;;;;6.86;55.94;98337.00;5068740;28;20546;-68
2023/01/31 00:20:48;;;;;;;7.30;5.00;;;;;;;6.89;55.81;98332.41;5069114;28;20413;-69
2023/01/31 00:23:13;;;;;;;10.60;4.90;;;;;;;6.90;56.18;98336.69;5069389;28;20233;-70
2023/01/31 00:25:39;;;;;;;7.10;4.77;;;;;;;6.88;55.69;98342.91;5074656;28;20581;-68
2023/01/31 00:28:04;;;;;;;8.40;5.17;;;;;;;6.73;55.83;98331.72;5050107;28;20202;-70
2023/01/31 00:30:30;;;;;;;12.80;5.10;;;;;;;6.51;56.20;98329.69;5044679;28;20175;-70
2023/01/31 00:32:55;;;;;;;10.60;4.27;;;;;;;6.44;56.67;98327.47;5045858;28;20560;-70
2023/01/31 00:35:20;;;;;;;8.80;5.47;;;;;;;6.37;56.68;98333.19;5060093;28;20224;-70
2023/01/31 00:37:46;;;;;;;11.63;4.90;;;;;;;6.16;57.42;98331.03;5059148;28;20182;-72
2023/01/31 00:40:11;;;;;;;10.27;4.57;;;;;;;6.19;57.02;98328.19;5058197;28;20300;-72
2023/01/31 00:42:37;;;;;;;12.27;4.60;;;;;;;6.20;57.40;98326.44;5050963;28;20172;-70
2023/01/31 00:45:02;;;;;;;10.67;5.03;;;;;;;6.17;57.40;98321.44;5049519;28;20225;-71
2023/01/31 00:47:28;;;;;;;12.57;5.33;;;;;;;6.17;57.52;98316.22;5049251;28;20273;-70
2023/01/31 00:49:53;;;;;;;10.03;5.13;;;;;;;5.88;58.44;98317.09;5050909;28;20254;-69
2023/01/31 00:52:19;;;;;;;9.53;4.80;;;;;;;5.97;58.41;98320.91;5056292;28;20662;-70
2023/01/31 00:54:44;;;;;;;12.07;5.10;;;;;;;5.86;58.37;98326.75;5049667;28;20711;-70
2023/01/31 00:57:10;;;;;;;11.37;4.60;;;;;;;6.11;57.62;98327.84;5048066;28;20634;-70
2023/01/31 00:59:35;;;;;;;14.67;5.20;;;;;;;6.13;57.69;98326.81;5048997;28;20669;-71
2023/01/31 01:02:00;;;;;;;8.43;4.60;;;;;;;6.17;57.41;98319.69;5049362;28;20237;-68
2023/01/31 01:04:26;;;;;;;9.10;4.97;;;;;;;6.04;57.14;98321.38;5041452;28;20973;-69
2023/01/31 01:06:51;;;;;;;14.83;5.93;;;;;;;5.96;57.76;98319.22;5049423;28;20222;-71
2023/01/31 01:09:17;;;;;;;7.30;4.40;;;;;;;6.09;57.23;98316.69;5044475;28;20176;-69
2023/01/31 01:11:42;;;;;;;9.93;4.23;;;;;;;5.97;57.50;98315.69;5047811;28;20194;-69
2023/01/31 01:14:08;;;;;;;9.30;5.03;;;;;;;6.19;56.76;98320.38;5046870;28;20209;-68
2023/01/31 01:16:35;;;;;;;7.07;4.10;;;;;;;6.28;56.97;98322.44;5056592;28;20230;-69
2023/01/31 01:19:06;;;;;;;10.23;4.27;;;;;;;6.34;56.67;98320.34;5054441;28;20187;-67
2023/01/31 01:21:36;;;;;;;10.90;4.67;;;;;;;6.33;56.66;98316.06;5054745;28;20413;-70
2023/01/31 01:24:02;;;;;;;5.83;4.40;;;;;;;6.25;55.95;98314.81;5047313;28;20439;-68
2023/01/31 01:26:30;;;;;;;10.40;4.20;;;;;;;6.33;56.15;98310.88;5048069;28;20418;-70
2023/01/31 01:28:56;;;;;;;10.77;5.07;;;;;;;6.29;56.54;98305.88;5048011;28;20210;-68
2023/01/31 01:31:28;;;;;;;9.33;4.90;;;;;;;6.37;56.15;98312.34;5045061;28;20988;-67
2023/01/31 01:33:56;;;;;;;16.20;5.47;;;;;;;6.29;55.85;98311.09;5049126;28;20473;-71
2023/01/31 01:36:24;;;;;;;11.33;4.90;;;;;;;6.24;56.32;98305.31;5048592;28;20515;-69
2023/01/31 01:38:50;;;;;;;11.50;5.10;;;;;;;6.38;56.39;98314.03;5044617;28;20500;-68
2023/01/31 01:41:16;;;;;;;7.50;4.70;;;;;;;6.33;56.09;98318.69;5046378;28;20516;-70
2023/01/31 01:43:43;;;;;;;9.53;3.77;;;;;;;6.33;56.17;98324.72;5047255;28;21010;-70
2023/01/31 01:46:15;;;;;;;7.80;4.33;;;;;;;6.29;56.29;98323.25;5048288;28;20449;-68
2023/01/31 01:48:43;;;;;;;11.70;4.23;;;;;;;6.35;56.27;98322.03;5045291;28;20421;-68
2023/01/31 01:51:08;;;;;;;9.63;4.27;;;;;;;6.36;56.28;98331.50;5061497;28;20408;-68
2023/01/31 01:53:38;;;;;;;10.20;5.17;;;;;;;6.37;55.88;98327.97;5047894;28;20433;-68
2023/01/31 01:56:08;;;;;;;10.53;4.63;;;;;;;6.39;55.63;98331.31;5043711;28;20826;-69
2023/01/31 01:58:42;;;;;;;9.10;4.60;;;;;;;6.36;56.07;98334.97;5046863;28;20414;-68
2023/01/31 02:01:09;;;;;;;13.00;4.10;;;;;;;6.37;56.36;98334.00;5046998;28;20425;-68
2023/01/31 02:03:35;;;;;;;7.40;4.37;;;;;;;6.38;55.73;98334.84;5047737;28;20445;-70
2023/01/31 02:06:04;;;;;;;8.50;4.40;;;;;;;6.40;55.87;98333.81;5054888;28;20775;-68
2023/01/31 02:08:32;;;;;;;5.60;4.00;;;;;;;6.35;55.60;98329.84;5047230;28;20190;-71
2023/01/31 02:11:06;;;;;;;9.47;4.60;;;;;;;6.33;55.26;98331.69;5059596;28;20429;-68
2023/01/31 02:13:32;;;;;;;10.77;4.47;;;;;;;6.33;55.69;98334.28;5042108;28;20502;-70
2023/01/31 02:15:58;;;;;;;13.57;5.03;;;;;;;6.30;56.06;98336.16;5053451;28;20853;-69
2023/01/31 02:18:24;;;;;;;8.40;4.80;;;;;;;6.32;56.15;98328.28;5057422;28;20513;-69
2023/01/31 02:21:02;;;;;;;6.60;4.30;;;;;;;6.30;56.34;98333.56;5047404;28;20210;-69
2023/01/31 02:24:02;;;;;;;12.97;4.87;;;;;;;6.35;55.87;98348.06;5048574;28;20445;-68
2023/01/31 02:26:36;;;;;;;10.20;5.10;;;;;;;6.27;55.98;98353.75;5038968;28;20497;-70
2023/01/31 02:29:44;;;;;;;8.53;4.40;;;;;;;6.26;56.21;98352.94;5052742;28;20495;-70
2023/01/31 02:35:57;;;;;;;12.93;4.57;;;;;;;6.34;56.12;98338.56;5053879;28;21084;-72
2023/01/31 02:38:44;;;;;;;11.47;4.57;;;;;;;6.21;56.22;98344.56;5045992;28;20428;-70
2023/01/31 02:41:27;;;;;;;8.13;4.33;;;;;;;6.28;56.26;98343.25;5048054;28;20433;-68
2023/01/31 02:47:16;;;;;;;10.87;4.37;;;;;;;6.35;56.10;98361.09;5045633;28;20434;-68
2023/01/31 02:50:08;;;;;;;15.07;5.70;;;;;;;6.29;56.50;98359.69;5030416;28;20987;-69
2023/01/31 02:52:51;;;;;;;10.40;4.87;;;;;;;6.32;56.04;98354.31;5059297;28;20841;-70
2023/01/31 02:58:13;;;;;;;9.80;4.63;;;;;;;6.37;56.03;98364.44;5043173;28;20433;-70
2023/01/31 03:00:41;;;;;;;8.73;4.57;;;;;;;6.32;56.24;98371.69;5050544;28;20482;-71
2023/01/31 03:03:08;;;;;;;6.63;4.20;;;;;;;6.33;56.21;98363.78;5051233;28;20817;-71
2023/01/31 03:05:33;;;;;;;13.60;4.53;;;;;;;6.30;56.10;98369.19;5041934;28;20413;-73
2023/01/31 03:08:00;;;;;;;11.10;4.30;;;;;;;6.27;56.56;98366.78;5055252;28;20457;-69
2023/01/31 03:10:38;;;;;;;13.20;4.70;;;;;;;6.32;56.56;98362.13;5056264;28;20175;-69
2023/01/31 03:13:47;;;;;;;8.67;4.40;;;;;;;6.37;56.19;98364.44;5041631;28;20441;-69
2023/01/31 03:19:18;;;;;;;9.20;4.60;;;;;;;6.44;55.95;98366.56;5028774;28;21115;-68
2023/01/31 03:22:01;;;;;;;10.70;5.13;;;;;;;6.33;56.16;98362.94;5040004;28;20457;-69
2023/01/31 03:24:29;;;;;;;11.17;4.20;;;;;;;6.28;56.59;98364.09;5049544;28;21025;-67
2023/01/31 03:26:56;;;;;;;13.63;5.03;;;;;;;6.25;56.46;98372.09;5055373;28;20418;-68
2023/01/31 03:29:22;;;;;;;12.47;4.77;;;;;;;6.24;56.34;98370.41;5047533;28;20944;-67
2023/01/31 03:35:45;;;;;;;9.20;4.63;;;;;;;6.32;56.40;98371.69;5048306;28;20429;-69
2023/01/31 03:38:15;;;;;;;6.77;4.40;;;;;;;6.37;56.31;98374.84;5027831;28;20426;-69
2023/01/31 03:40:46;;;;;;;11.33;4.80;;;;;;;6.35;56.01;98379.31;5054540;28;20424;-69
2023/01/31 03:43:19;;;;;;;8.00;4.23;;;;;;;6.28;56.38;98379.72;5061575;28;20471;-68
2023/01/31 03:46:03;;;;;;;5.77;4.50;;;;;;;6.22;56.48;98376.66;5052022;28;20456;-70
2023/01/31 03:48:32;;;;;;;11.93;4.70;;;;;;;6.18;56.74;98373.38;5061161;28;20541;-69
2023/01/31 03:51:00;;;;;;;12.10;5.40;;;;;;;6.15;56.10;98376.22;5054508;28;21376;-68
2023/01/31 03:53:33;;;;;;;9.83;5.23;;;;;;;6.21;56.67;98386.22;5046471;28;20862;-68
2023/01/31 03:56:26;;;;;;;17.03;5.00;;;;;;;6.13;56.97;98373.69;5050754;28;20544;-68
2023/01/31 03:58:59;;;;;;;14.33;4.87;;;;;;;6.08;56.92;98386.16;5058082;28;20917;-69
2023/01/31 04:01:27;;;;;;;11.90;5.53;;;;;;;6.17;56.48;98387.38;5047877;28;20436;-68
2023/01/31 04:03:57;;;;;;;16.53;4.80;;;;;;;6.15;56.71;98394.44;5057809;28;20941;-70
2023/01/31 04:06:22;;;;;;;11.73;4.83;;;;;;;6.13;56.80;98402.31;5040242;28;20485;-73
2023/01/31 04:08:48;;;;;;;15.93;4.63;;;;;;;6.28;56.23;98397.09;5054249;28;20984;-69
2023/01/31 04:11:13;;;;;;;15.97;4.60;;;;;;;6.29;55.84;98397.00;5056491;28;20175;-69
2023/01/31 04:13:40;;;;;;;13.37;5.47;;;;;;;6.32;55.72;98392.50;5048221;28;20199;-69
2023/01/31 04:16:06;;;;;;;7.83;4.47;;;;;;;6.34;55.74;98399.31;5047095;28;20253;-70
2023/01/31 04:18:31;;;;;;;10.77;5.37;;;;;;;6.27;55.70;98408.44;5049494;28;20421;-68
2023/01/31 04:20:57;;;;;;;9.10;5.50;;;;;;;6.13;55.90;98414.50;5050198;28;20190;-71
2023/01/31 04:23:23;;;;;;;15.97;4.93;;;;;;;6.17;56.45;98404.72;5049436;28;20214;-68
2023/01/31 04:25:49;;;;;;;9.73;4.50;;;;;;;6.18;55.96;98416.81;5052244;28;20568;-71
2023/01/31 04:28:14;;;;;;;10.73;4.80;;;;;;;6.18;56.04;98402.03;5051998;28;20436;-69
2023/01/31 04:30:40;;;;;;;14.73;5.30;;;;;;;6.20;55.50;98402.78;5049902;28;20282;-69
2023/01/31 04:33:05;;;;;;;14.40;5.17;;;;;;;5.98;56.08;98400.66;5048415;28;20205;-70
2023/01/31 04:35:31;;;;;;;13.40;5.70;;;;;;;5.96;56.53;98408.53;5048434;28;20626;-70
2023/01/31 04:37:56;;;;;;;16.40;4.57;;;;;;;6.02;56.23;98403.91;5035838;28;20183;-69
2023/01/31 04:40:21;;;;;;;10.80;5.13;;;;;;;6.04;56.32;98407.28;5052258;28;20214;-67
2023/01/31 04:42:49;;;;;;;18.33;5.87;;;;;;;6.05;56.27;98408.94;5060703;28;20210;-70
2023/01/31 04:45:15;;;;;;;10.37;5.03;;;;;;;6.03;56.23;98410.81;5051289;28;20185;-71
2023/01/31 04:47:40;;;;;;;11.70;4.70;;;;;;;5.91;56.15;98415.78;5057849;28;20792;-69
2023/01/31 04:50:06;;;;;;;20.13;4.80;;;;;;;5.92;56.51;98417.44;5051231;28;20266;-69
2023/01/31 04:52:31;;;;;;;9.23;4.63;;;;;;;5.82;56.56;98416.34;5055882;28;20190;-70
2023/01/31 04:54:57;;;;;;;15.17;4.93;;;;;;;5.81;56.76;98425.06;5024462;28;20179;-72
2023/01/31 04:57:22;;;;;;;15.20;5.63;;;;;;;5.98;56.21;98416.25;5048745;28;20234;-69
2023/01/31 04:59:49;;;;;;;10.53;4.80;;;;;;;5.95;56.30;98409.44;5056340;28;20550;-69
2023/01/31 05:02:14;;;;;;;9.47;4.60;;;;;;;5.90;56.63;98408.91;5048282;28;20777;-69
2023/01/31 05:04:40;;;;;;;10.50;4.43;;;;;;;5.76;56.71;98411.50;5048360;28;20441;-70
2023/01/31 05:07:05;;;;;;;7.07;4.10;;;;;;;5.72;56.80;98405.66;5042199;28;20179;-71
2023/01/31 05:09:30;;;;;;;8.97;4.93;;;;;;;5.72;57.31;98410.00;5048899;28;20262;-70
2023/01/31 05:11:56;;;;;;;11.97;5.13;;;;;;;5.77;57.15;98411.41;5049695;28;20243;-68
2023/01/31 05:14:21;;;;;;;12.90;4.97;;;;;;;5.75;57.26;98415.88;5046008;28;20203;-67
2023/01/31 05:16:47;;;;;;;13.50;4.63;;;;;;;5.77;57.40;98408.81;5044014;28;20623;-70
2023/01/31 05:19:15;;;;;;;14.00;5.47;;;;;;;5.59;57.63;98410.75;5048990;28;20266;-71
2023/01/31 05:21:53;;;;;;;13.03;5.57;;;;;;;5.60;57.99;98417.63;5054229;28;20174;-69
2023/01/31 05:24:22;;;;;;;8.90;4.50;;;;;;;5.68;57.96;98411.97;5050342;28;20456;-71
2023/01/31 05:26:50;;;;;;;15.57;5.30;;;;;;;5.73;57.88;98411.69;5051705;28;21226;-70
2023/01/31 05:29:16;;;;;;;17.60;5.47;;;;;;;5.76;57.83;98414.13;5053273;28;20421;-69
2023/01/31 05:31:41;;;;;;;12.80;5.27;;;;;;;5.82;57.46;98419.78;5051180;28;20442;-68
2023/01/31 05:34:09;;;;;;;12.30;5.27;;;;;;;5.84;57.12;98424.88;5045485;28;20454;-71
2023/01/31 05:36:34;;;;;;;11.73;4.83;;;;;;;5.81;56.80;98435.47;5038712;28;21193;-73
2023/01/31 05:38:59;;;;;;;9.83;4.77;;;;;;;5.67;57.66;98425.91;5044718;28;20426;-70
2023/01/31 05:41:25;;;;;;;12.33;4.90;;;;;;;5.65;57.76;98423.41;5043833;28;20280;-69
2023/01/31 05:43:50;;;;;;;11.27;4.90;;;;;;;5.67;57.63;98433.72;5054801;28;20226;-69
2023/01/31 05:46:16;;;;;;;11.27;4.80;;;;;;;5.62;57.48;98435.72;5052303;28;20222;-71
2023/01/31 05:48:41;;;;;;;12.40;5.20;;;;;;;5.46;57.73;98425.41;5054939;28;20210;-70
2023/01/31 05:51:07;;;;;;;11.00;4.97;;;;;;;5.56;57.78;98423.94;5048863;28;20206;-71
2023/01/31 05:53:32;;;;;;;18.20;5.03;;;;;;;5.53;57.25;98417.16;5049983;28;20574;-69
2023/01/31 05:55:57;;;;;;;10.07;5.40;;;;;;;5.49;57.26;98425.22;5048331;28;20244;-67
2023/01/31 05:58:23;;;;;;;6.77;4.80;;;;;;;5.46;57.38;98420.19;5047976;28;20293;-69
2023/01/31 06:00:48;;;;;;;10.57;5.27;;;;;;;5.52;57.48;98422.44;5053120;28;20210;-68
2023/01/31 06:03:14;;;;;;;5.90;4.67;;;;;;;5.55;57.70;98424.84;5046192;28;20231;-68
2023/01/31 06:05:39;;;;;;;9.53;5.50;;;;;;;5.48;56.99;98428.75;5049157;28;20198;-70
2023/01/31 06:08:06;;;;;;;8.77;5.20;;;;;;;5.56;57.27;98426.53;5054380;28;20209;-67
2023/01/31 06:10:31;;;;;;;12.40;5.60;;;;;;;5.59;56.70;98428.94;5043886;28;20556;-70
2023/01/31 06:12:57;;;;;;;12.83;6.37;;;;;;;5.59;56.73;98430.72;5048822;28;20445;-69
2023/01/31 06:15:22;;;;;;;12.10;5.70;;;;;;;5.54;57.14;98437.03;5045640;28;20736;-68
2023/01/31 06:17:48;;;;;;;11.83;5.10;;;;;;;5.56;56.90;98426.53;5048569;28;20787;-71
2023/01/31 06:20:13;;;;;;;18.23;5.30;;;;;;;5.52;56.94;98433.69;5047723;28;20698;-69
2023/01/31 06:22:40;;;;;;;9.90;6.13;;;;;;;5.52;57.04;98435.47;5047674;28;20189;-69
2023/01/31 06:25:05;;;;;;;8.70;5.60;;;;;;;5.48;56.69;98428.75;5051048;28;20562;-70
2023/01/31 06:27:32;;;;;;;9.13;5.87;;;;;;;5.45;56.87;98434.97;5048444;28;20410;-69
2023/01/31 06:29:57;;;;;;;11.37;5.93;;;;;;;5.32;56.75;98434.03;5049251;28;20194;-68
2023/01/31 06:32:23;;;;;;;12.37;5.83;;;;;;;5.22;57.67;98428.50;5046453;28;20446;-69
2023/01/31 06:34:48;;;;;;;13.30;6.23;;;;;;;5.14;57.87;98436.75;5046564;28;20298;-69
2023/01/31 06:37:13;;;;;;;12.90;6.27;;;;;;;5.14;57.95;98430.72;5053435;28;20203;-70
2023/01/31 06:39:39;;;;;;;10.37;6.40;;;;;;;5.10;57.79;98429.22;5047910;28;20325;-69
2023/01/31 06:42:05;;;;;;;16.07;6.43;;;;;;;5.12;57.95;98427.38;5052579;28;20250;-68
2023/01/31 06:44:32;;;;;;;16.20;6.70;;;;;;;5.16;58.02;98444.47;5055129;28;20682;-69
2023/01/31 06:46:59;;;;;;;18.37;7.57;;;;;;;5.15;57.86;98443.63;5051813;28;20741;-70
2023/01/31 06:49:24;;;;;;;16.50;8.23;;;;;;;5.25;57.72;98443.94;5050080;28;20476;-68
2023/01/31 06:51:50;;;;;;;14.33;6.53;;;;;;;5.27;57.55;98447.28;5045823;28;20422;-70
2023/01/31 06:54:15;;;;;;;12.37;5.63;;;;;;;5.25;57.04;98443.94;5046116;28;20226;-69
2023/01/31 06:56:40;;;;;;;10.90;5.40;;;;;;;5.16;57.94;98434.91;5045931;28;20349;-69
2023/01/31 06:59:06;;;;;;;12.83;6.70;;;;;;;5.25;58.02;98443.94;5051719;28;20658;-71
2023/01/31 07:01:31;;;;;;;9.93;5.87;;;;;;;5.29;57.04;98440.25;5051418;28;20640;-72
2023/01/31 07:03:57;;;;;;;8.93;5.60;;;;;;;5.32;57.39;98436.63;5050871;28;20355;-70
2023/01/31 07:06:22;;;;;;;17.23;6.60;;;;;;;5.17;56.73;98430.53;5041790;28;20656;-69
2023/01/31 07:08:48;;;;;;;17.27;7.50;;;;;;;5.06;58.13;98429.38;5043732;28;20188;-68
2023/01/31 07:11:13;;;;;;;15.43;6.73;;;;;;;4.95;57.78;98423.97;5047287;28;20215;-69
2023/01/31 07:13:38;;;;;;;17.17;8.23;;;;;;;5.06;57.47;98429.38;5052836;28;20201;-71
2023/01/31 07:16:04;;;;;;;19.20;7.10;;;;;;;5.08;58.39;98437.09;5055768;28;20192;-70
2023/01/31 07:18:29;;;;;;;13.33;6.23;;;;;;;5.11;57.88;98436.91;5045027;28;20182;-70
2023/01/31 07:20:55;;;;;;;12.97;6.77;;;;;;;5.13;57.50;98436.84;5056420;28;20254;-70
2023/01/31 07:23:20;;;;;;;25.00;9.43;;;;;;;5.14;57.83;98428.94;5041625;28;20218;-69
2023/01/31 07:25:46;;;;;;;29.97;7.47;;;;;;;5.15;57.33;98435.00;5054232;28;20176;-70
2023/01/31 07:28:11;;;;;;;19.23;8.27;;;;;;;5.22;58.09;98431.09;5051494;28;20187;-68
2023/01/31 07:30:37;;;;;;;12.20;6.97;;;;;;;5.26;57.80;98432.63;5055689;28;20186;-68
2023/01/31 07:33:02;;;;;;;9.53;5.30;;;;;;;5.36;58.09;98438.94;5046959;28;20207;-69
2023/01/31 07:35:28;;;;;;;16.77;6.40;;;;;;;5.38;57.58;98438.84;5038358;28;20243;-67
2023/01/31 07:37:53;;;;;;;11.03;6.73;;;;;;;5.46;58.01;98441.00;5053493;28;20191;-67
2023/01/31 07:40:19;;;;;;;8.63;5.17;;;;;;;5.54;57.94;98444.00;5040193;28;20511;-70
2023/01/31 07:42:44;;;;;;;12.10;5.93;;;;;;;5.58;57.33;98445.47;5051835;28;20278;-68
2023/01/31 07:45:11;;;;;;;15.40;6.37;;;;;;;5.67;57.51;98447.53;5040097;28;20266;-71
2023/01/31 07:47:37;;;;;;;11.70;5.80;;;;;;;5.65;57.19;98445.97;5059938;28;20713;-68
2023/01/31 07:50:02;;;;;;;11.97;5.87;;;;;;;5.66;57.37;98448.50;5051930;28;20496;-68
2023/01/31 07:52:28;;;;;;;12.50;5.97;;;;;;;5.78;57.40;98446.09;5041235;28;20650;-68
2023/01/31 07:54:53;;;;;;;17.20;6.10;;;;;;;5.84;57.38;98443.94;5051517;28;20338;-70
2023/01/31 07:57:19;;;;;;;12.37;5.83;;;;;;;5.84;57.55;98450.91;5040725;28;20203;-68
2023/01/31 07:59:44;;;;;;;10.63;5.20;;;;;;;5.88;57.01;98447.19;5061883;28;20643;-69
2023/01/31 08:05:01;;;;;;;14.07;6.90;;;;;;;6.13;56.67;98453.56;5056567;28;20174;-70
2023/01/31 08:07:27;;;;;;;14.50;6.90;;;;;;;6.21;56.58;98458.28;5052400;28;20470;-69
2023/01/31 08:09:53;;;;;;;13.30;6.10;;;;;;;6.40;56.54;98460.59;5058516;28;20214;-69
2023/01/31 08:12:18;;;;;;;14.83;5.70;;;;;;;6.60;56.19;98449.75;5055791;28;20924;-70
2023/01/31 08:14:44;;;;;;;11.80;4.50;;;;;;;6.75;55.31;98454.94;5064815;28;20226;-68
2023/01/31 08:17:09;;;;;;;9.93;5.20;;;;;;;7.04;54.56;98452.25;5064419;28;20202;-67
2023/01/31 08:19:35;;;;;;;13.33;6.07;;;;;;;7.27;53.74;98457.72;5054687;28;20193;-69
2023/01/31 08:22:01;;;;;;;17.40;5.43;;;;;;;7.59;53.00;98452.13;5058408;28;20183;-68
2023/01/31 08:24:27;;;;;;;12.10;5.07;;;;;;;7.60;51.53;98449.44;5059602;28;20214;-67
2023/01/31 08:26:52;;;;;;;13.60;5.33;;;;;;;8.08;51.53;98448.78;5062125;28;20413;-68
2023/01/31 08:29:18;;;;;;;15.80;5.30;;;;;;;8.48;51.15;98447.84;5057298;28;20228;-69
2023/01/31 08:31:43;;;;;;;16.33;5.83;;;;;;;8.60;49.43;98443.50;5060378;28;20229;-67
2023/01/31 08:34:09;;;;;;;12.37;5.30;;;;;;;9.12;49.20;98445.91;5058363;28;20202;-70
2023/01/31 08:36:34;;;;;;;16.80;5.90;;;;;;;9.36;48.07;98441.47;5042272;28;20211;-68
2023/01/31 08:39:00;;;;;;;8.93;4.90;;;;;;;9.59;47.10;98446.75;5057206;28;20186;-69
2023/01/31 08:41:27;;;;;;;15.83;5.43;;;;;;;9.67;47.68;98436.56;5065188;28;20179;-69
2023/01/31 08:43:54;;;;;;;8.10;4.60;;;;;;;9.99;46.62;98442.91;5064242;28;20226;-69
2023/01/31 08:46:20;;;;;;;11.30;4.40;;;;;;;10.37;45.87;98435.59;5045578;28;20411;-70
2023/01/31 08:48:45;;;;;;;14.17;4.50;;;;;;;10.45;45.36;98430.66;5067268;28;20499;-69
2023/01/31 08:51:12;;;;;;;11.57;4.90;;;;;;;10.08;45.41;98436.13;5059350;28;20414;-69
2023/01/31 08:53:39;;;;;;;9.80;4.50;;;;;;;9.98;45.68;98430.75;5058348;28;20194;-69
2023/01/31 08:56:06;;;;;;;10.73;5.13;;;;;;;9.90;45.96;98425.25;5063931;28;20449;-69
2023/01/31 08:58:35;;;;;;;12.33;5.10;;;;;;;9.81;46.07;98425.03;5058103;28;20738;-70
2023/01/31 09:01:02;;;;;;;11.20;4.67;;;;;;;9.91;45.90;98417.28;5062488;28;20501;-68
2023/01/31 09:03:28;;;;;;;11.93;4.93;;;;;;;9.86;45.54;98422.03;5062995;28;20474;-68
2023/01/31 09:05:53;;;;;;;9.57;4.73;;;;;;;9.82;46.09;98415.41;5059459;28;20571;-71
2023/01/31 09:08:19;;;;;;;15.10;5.60;;;;;;;9.93;46.20;98412.78;5057785;28;20262;-68
2023/01/31 09:10:53;;;;;;;14.50;5.20;;;;;;;9.90;46.02;98415.63;5061422;28;20685;-70
2023/01/31 09:13:19;;;;;;;12.37;4.60;;;;;;;9.77;45.89;98428.81;5066888;28;20197;-68
2023/01/31 09:15:44;;;;;;;15.37;4.97;;;;;;;9.87;45.72;98418.47;5060979;28;20979;-68
2023/01/31 09:18:10;;;;;;;14.83;4.70;;;;;;;9.74;45.72;98433.47;5057868;28;20175;-69
2023/01/31 09:20:36;;;;;;;14.50;4.53;;;;;;;9.33;46.42;98436.47;5061445;28;20179;-68
2023/01/31 09:23:01;;;;;;;10.03;4.43;;;;;;;9.60;46.33;98431.91;5059043;28;20869;-69
2023/01/31 09:25:27;;;;;;;11.77;4.90;;;;;;;9.57;45.64;98430.34;5067233;28;20707;-69
2023/01/31 09:27:52;;;;;;;14.87;4.90;;;;;;;9.35;46.78;98423.28;5060865;28;20189;-69
2023/01/31 09:30:18;;;;;;;8.47;4.17;;;;;;;9.52;46.16;98424.63;5066250;28;20227;-68
2023/01/31 09:32:44;;;;;;;9.13;4.47;;;;;;;9.52;45.82;98420.22;5060118;28;20186;-70
2023/01/31 09:35:12;;;;;;;9.40;4.47;;;;;;;9.57;46.23;98427.75;5056737;28;20290;-69
2023/01/31 09:37:37;;;;;;;7.80;4.27;;;;;;;9.44;45.85;98417.34;5054611;28;21171;-69
2023/01/31 09:40:04;;;;;;;9.73;4.03;;;;;;;9.50;46.34;98416.03;5052224;28;20428;-70
2023/01/31 09:42:33;;;;;;;5.63;3.83;;;;;;;9.03;46.29;98408.16;5066822;28;20205;-70
2023/01/31 09:45:03;;;;;;;9.53;3.80;;;;;;;9.16;46.31;98403.69;5055435;28;20953;-68
2023/01/31 09:47:33;;;;;;;9.33;4.00;;;;;;;9.04;46.46;98405.47;5059955;28;20413;-68
2023/01/31 09:50:06;;;;;;;8.13;3.40;;;;;;;8.76;47.30;98427.53;5058973;28;20524;-69
2023/01/31 09:52:32;;;;;;;7.10;3.83;;;;;;;8.85;47.25;98415.59;5057211;28;20498;-67
2023/01/31 09:54:58;;;;;;;9.60;3.60;;;;;;;8.72;47.45;98410.44;5063217;28;20529;-70
2023/01/31 09:57:39;;;;;;;7.93;4.33;;;;;;;8.63;48.08;98411.91;5051199;28;20534;-69
2023/01/31 10:00:14;;;;;;;9.13;4.23;;;;;;;8.47;47.65;98406.94;5054429;28;20192;-69
2023/01/31 10:03:01;;;;;;;12.27;4.23;;;;;;;8.25;48.13;98413.66;5032768;28;20430;-66
2023/01/31 10:05:51;;;;;;;13.17;4.00;;;;;;;8.28;48.51;98417.84;5052460;28;20422;-67
2023/01/31 10:08:41;;;;;;;11.77;4.73;;;;;;;8.43;48.44;98427.22;5051127;28;20820;-67
2023/01/31 10:11:13;;;;;;;11.23;4.13;;;;;;;8.54;48.55;98429.09;5055271;28;20516;-69
2023/01/31 10:13:48;;;;;;;13.03;4.40;;;;;;;8.65;48.48;98425.72;5067054;28;20436;-70
2023/01/31 10:16:24;;;;;;;15.07;4.90;;;;;;;8.76;48.32;98425.78;5056311;28;20471;-70
2023/01/31 10:18:59;;;;;;;11.83;4.30;;;;;;;8.54;48.15;98433.50;5051734;28;20481;-71
2023/01/31 10:21:28;;;;;;;13.90;4.27;;;;;;;8.43;48.18;98437.69;5044182;28;20457;-69
2023/01/31 10:24:04;;;;;;;12.03;4.73;;;;;;;8.45;47.92;98434.94;5041844;28;20852;-69
2023/01/31 10:26:33;;;;;;;12.50;3.97;;;;;;;8.44;47.95;98439.31;5044814;28;20419;-69
2023/01/31 10:29:04;;;;;;;9.97;3.40;;;;;;;8.25;47.83;98420.66;5047269;28;20837;-68
2023/01/31 10:31:41;;;;;;;9.47;3.87;;;;;;;8.32;48.27;98423.69;5052115;28;20428;-69
2023/01/31 10:34:11;;;;;;;9.57;3.90;;;;;;;8.29;48.05;98419.53;5051525;28;20796;-69
2023/01/31 10:36:40;;;;;;;11.53;3.97;;;;;;;8.39;47.74;98417.94;5043661;28;20544;-70
2023/01/31 10:39:14;;;;;;;12.10;4.07;;;;;;;8.43;48.02;98416.78;5044187;28;20921;-69
2023/01/31 10:41:44;;;;;;;10.27;4.10;;;;;;;8.55;47.38;98409.03;5038612;28;20452;-69
2023/01/31 10:44:16;;;;;;;6.37;3.10;;;;;;;8.74;47.98;98406.75;5050718;28;20515;-68
2023/01/31 10:46:42;;;;;;;9.77;4.03;;;;;;;8.69;46.92;98416.72;5037067;28;20417;-68
2023/01/31 10:49:08;;;;;;;8.50;3.90;;;;;;;8.85;47.42;98410.34;5047904;28;20533;-66
2023/01/31 10:52:03;;;;;;;8.93;3.60;;;;;;;8.99;47.20;98411.97;5044683;28;20199;-68
2023/01/31 10:54:57;;;;;;;15.77;3.67;;;;;;;8.75;47.01;98411.03;5045026;28;20349;-70
2023/01/31 10:57:23;;;;;;;7.80;3.30;;;;;;;8.83;47.43;98412.25;5037290;28;20458;-67
2023/01/31 10:59:49;;;;;;;8.97;3.70;;;;;;;8.87;47.73;98425.00;5048704;28;20429;-70
2023/01/31 11:02:17;;;;;;;12.53;4.00;;;;;;;8.76;48.02;98407.47;5049830;28;20187;-69
2023/01/31 11:04:43;;;;;;;8.00;3.33;;;;;;;8.83;47.67;98402.63;5047596;28;20250;-71
2023/01/31 11:07:09;;;;;;;13.97;4.40;;;;;;;8.96;47.35;98402.56;5044204;28;20433;-69
2023/01/31 11:09:46;;;;;;;7.17;3.50;;;;;;;9.11;47.22;98402.38;5039962;28;20185;-69
2023/01/31 11:12:11;;;;;;;5.93;3.27;;;;;;;9.13;47.25;98397.88;5075125;28;20451;-69
2023/01/31 11:14:38;;;;;;;11.07;3.57;;;;;;;9.19;46.74;98397.44;5073560;28;20444;-71
2023/01/31 11:17:23;;;;;;;11.07;3.70;;;;;;;9.18;46.33;98390.53;5064989;28;20183;-69
2023/01/31 11:19:53;;;;;;;9.53;3.40;;;;;;;9.13;46.80;98390.03;5072847;28;20425;-69
2023/01/31 11:22:30;;;;;;;4.97;2.87;;;;;;;9.07;46.83;98384.28;5070126;28;20421;-69
2023/01/31 11:24:57;;;;;;;8.53;3.30;;;;;;;9.10;46.92;98382.41;5083112;28;20468;-69
2023/01/31 11:27:31;;;;;;;7.40;3.20;;;;;;;9.09;47.19;98376.34;5072780;28;20556;-69
2023/01/31 11:29:57;;;;;;;9.10;3.33;;;;;;;9.04;47.39;98368.84;5072581;28;20420;-70
2023/01/31 11:32:29;;;;;;;7.03;3.33;;;;;;;9.10;47.32;98362.31;5081054;28;20808;-72
2023/01/31 11:35:28;;;;;;;6.70;2.80;;;;;;;8.97;47.42;98357.16;5062500;28;20215;-70
2023/01/31 11:37:58;;;;;;;8.40;2.93;;;;;;;9.28;46.82;98359.25;5051910;28;20437;-70
2023/01/31 11:40:38;;;;;;;8.07;3.03;;;;;;;9.29;46.43;98338.22;5064459;28;20796;-68
2023/01/31 11:43:05;;;;;;;8.53;3.23;;;;;;;9.25;46.59;98336.78;5042320;28;20970;-70
2023/01/31 11:45:32;;;;;;;5.73;2.87;;;;;;;9.26;46.53;98321.94;5042494;28;20431;-70
2023/01/31 11:48:07;;;;;;;6.83;2.90;;;;;;;9.32;46.38;98324.94;5059272;28;20524;-70
2023/01/31 11:50:37;;;;;;;8.70;2.97;;;;;;;9.37;46.32;98322.78;5059352;28;20483;-71
2023/01/31 11:53:13;;;;;;;11.77;2.83;;;;;;;9.41;46.23;98317.31;5058080;28;20432;-70
2023/01/31 11:55:40;;;;;;;11.90;3.53;;;;;;;9.26;46.00;98314.91;5034466;28;20452;-72
2023/01/31 11:58:21;;;;;;;8.53;2.83;;;;;;;9.41;46.20;98318.13;5061790;28;20419;-69
2023/01/31 12:01:05;;;;;;;8.50;2.80;;;;;;;9.45;46.01;98329.22;5055320;28;20919;-70
2023/01/31 12:03:31;;;;;;;6.10;2.90;;;;;;;9.45;45.59;98324.81;5064584;28;20436;-71